sensor_id;sensor_type;location;lat;lon;timestamp;P1;durP1;ratioP1;P2;durP2;ratioP2
14346;SDS011;7257;52.158;9.968;2023-02-28T00:00:17;8.00;;;3.58;;
14346;SDS011;7257;52.158;9.968;2023-02-28T00:00:40;8.13;;;3.80;;
14346;SDS011;7257;52.158;9.968;2023-02-28T00:01:01;7.07;;;3.60;;
14346;SDS011;7257;52.158;9.968;2023-02-28T00:01:22;3.80;;;3.35;;
14346;SDS011;7257;52.158;9.968;2023-02-28T00:01:43;3.75;;;3.00;;
14346;SDS011;7257;52.158;9.968;2023-02-28T00:02:05;4.30;;;3.28;;
14346;SDS011;7257;52.158;9.968;2023-02-28T00:02:26;3.90;;;3.10;;
14346;SDS011;7257;52.158;9.968;2023-02-28T00:02:47;4.47;;;3.10;;
14346;SDS011;7257;52.158;9.968;2023-02-28T00:03:08;4.90;;;3.15;;
14346;SDS011;7257;52.158;9.968;2023-02-28T00:03:30;4.95;;;3.28;;
14346;SDS011;7257;52.158;9.968;2023-02-28T00:03:55;4.57;;;3.90;;
14346;SDS011;7257;52.158;9.968;2023-02-28T00:04:16;4.50;;;3.63;;
14346;SDS011;7257;52.158;9.968;2023-02-28T00:04:37;3.45;;;2.80;;
14346;SDS011;7257;52.158;9.968;2023-02-28T00:04:58;4.28;;;3.22;;
14346;SDS011;7257;52.158;9.968;2023-02-28T00:05:23;4.43;;;3.35;;
14346;SDS011;7257;52.158;9.968;2023-02-28T00:05:45;4.63;;;3.58;;
14346;SDS011;7257;52.158;9.968;2023-02-28T00:06:07;3.90;;;3.28;;
14346;SDS011;7257;52.158;9.968;2023-02-28T00:06:29;3.95;;;3.55;;
14346;SDS011;7257;52.158;9.968;2023-02-28T00:06:51;4.55;;;4.15;;
14346;SDS011;7257;52.158;9.968;2023-02-28T00:07:12;4.45;;;4.05;;
14346;SDS011;7257;52.158;9.968;2023-02-28T00:07:33;4.40;;;3.55;;
14346;SDS011;7257;52.158;9.968;2023-02-28T00:07:55;4.40;;;3.20;;
14346;SDS011;7257;52.158;9.968;2023-02-28T00:08:16;3.47;;;3.10;;
14346;SDS011;7257;52.158;9.968;2023-02-28T00:08:38;3.25;;;2.95;;
14346;SDS011;7257;52.158;9.968;2023-02-28T00:08:59;3.78;;;3.17;;
14346;SDS011;7257;52.158;9.968;2023-02-28T00:09:20;4.50;;;3.72;;
14346;SDS011;7257;52.158;9.968;2023-02-28T00:09:41;4.97;;;3.83;;
14346;SDS011;7257;52.158;9.968;2023-02-28T00:10:04;6.10;;;4.32;;
14346;SDS011;7257;52.158;9.968;2023-02-28T00:10:27;5.80;;;4.00;;
14346;SDS011;7257;52.158;9.968;2023-02-28T00:10:49;4.75;;;4.20;;
14346;SDS011;7257;52.158;9.968;2023-02-28T00:11:11;5.03;;;4.53;;
14346;SDS011;7257;52.158;9.968;2023-02-28T00:11:34;5.10;;;4.60;;
14346;SDS011;7257;52.158;9.968;2023-02-28T00:11:57;4.80;;;4.30;;
14346;SDS011;7257;52.158;9.968;2023-02-28T00:12:18;4.80;;;3.90;;
14346;SDS011;7257;52.158;9.968;2023-02-28T00:12:39;4.32;;;3.42;;
14346;SDS011;7257;52.158;9.968;2023-02-28T00:13:02;4.10;;;3.47;;
14346;SDS011;7257;52.158;9.968;2023-02-28T00:13:26;4.50;;;3.70;;
14346;SDS011;7257;52.158;9.968;2023-02-28T00:13:47;4.43;;;3.55;;
14346;SDS011;7257;52.158;9.968;2023-02-28T00:14:08;4.43;;;3.60;;
14346;SDS011;7257;52.158;9.968;2023-02-28T00:14:29;4.03;;;3.63;;
14346;SDS011;7257;52.158;9.968;2023-02-28T00:14:51;4.32;;;3.63;;
14346;SDS011;7257;52.158;9.968;2023-02-28T00:15:12;6.93;;;4.10;;
14346;SDS011;7257;52.158;9.968;2023-02-28T00:15:33;7.78;;;4.47;;
14346;SDS011;7257;52.158;9.968;2023-02-28T00:15:58;6.65;;;4.28;;
14346;SDS011;7257;52.158;9.968;2023-02-28T00:16:21;4.80;;;3.40;;
14346;SDS011;7257;52.158;9.968;2023-02-28T00:16:43;4.78;;;3.63;;
14346;SDS011;7257;52.158;9.968;2023-02-28T00:17:03;5.20;;;4.15;;
14346;SDS011;7257;52.158;9.968;2023-02-28T00:17:24;5.35;;;4.55;;
14346;SDS011;7257;52.158;9.968;2023-02-28T00:17:45;4.97;;;4.55;;
14346;SDS011;7257;52.158;9.968;2023-02-28T00:18:07;5.50;;;5.00;;
14346;SDS011;7257;52.158;9.968;2023-02-28T00:18:28;5.05;;;4.55;;
14346;SDS011;7257;52.158;9.968;2023-02-28T00:18:49;5.18;;;4.22;;
14346;SDS011;7257;52.158;9.968;2023-02-28T00:19:11;4.78;;;3.70;;
14346;SDS011;7257;52.158;9.968;2023-02-28T00:19:33;5.03;;;3.72;;
14346;SDS011;7257;52.158;9.968;2023-02-28T00:19:54;3.88;;;3.47;;
14346;SDS011;7257;52.158;9.968;2023-02-28T00:20:15;4.65;;;3.78;;
14346;SDS011;7257;52.158;9.968;2023-02-28T00:20:37;4.50;;;4.03;;
14346;SDS011;7257;52.158;9.968;2023-02-28T00:20:58;4.47;;;3.83;;
14346;SDS011;7257;52.158;9.968;2023-02-28T00:21:19;4.43;;;3.83;;
14346;SDS011;7257;52.158;9.968;2023-02-28T00:21:42;4.30;;;3.83;;
14346;SDS011;7257;52.158;9.968;2023-02-28T00:22:02;5.75;;;4.85;;
14346;SDS011;7257;52.158;9.968;2023-02-28T00:22:23;6.03;;;4.82;;
14346;SDS011;7257;52.158;9.968;2023-02-28T00:22:45;5.90;;;4.38;;
14346;SDS011;7257;52.158;9.968;2023-02-28T00:23:07;5.55;;;4.00;;
14346;SDS011;7257;52.158;9.968;2023-02-28T00:23:29;4.68;;;3.75;;
14346;SDS011;7257;52.158;9.968;2023-02-28T00:23:50;5.55;;;3.83;;
14346;SDS011;7257;52.158;9.968;2023-02-28T00:24:11;5.47;;;3.90;;
14346;SDS011;7257;52.158;9.968;2023-02-28T00:24:32;6.15;;;3.88;;
14346;SDS011;7257;52.158;9.968;2023-02-28T00:24:54;4.50;;;3.28;;
14346;SDS011;7257;52.158;9.968;2023-02-28T00:25:15;4.47;;;3.90;;
14346;SDS011;7257;52.158;9.968;2023-02-28T00:25:38;4.63;;;4.13;;
14346;SDS011;7257;52.158;9.968;2023-02-28T00:25:59;4.53;;;3.65;;
14346;SDS011;7257;52.158;9.968;2023-02-28T00:26:21;4.50;;;3.63;;
14346;SDS011;7257;52.158;9.968;2023-02-28T00:26:42;5.95;;;3.97;;
14346;SDS011;7257;52.158;9.968;2023-02-28T00:27:03;5.93;;;4.03;;
14346;SDS011;7257;52.158;9.968;2023-02-28T00:27:24;5.07;;;3.88;;
14346;SDS011;7257;52.158;9.968;2023-02-28T00:27:45;4.03;;;3.63;;
14346;SDS011;7257;52.158;9.968;2023-02-28T00:28:07;3.90;;;3.58;;
14346;SDS011;7257;52.158;9.968;2023-02-28T00:28:30;3.67;;;3.38;;
14346;SDS011;7257;52.158;9.968;2023-02-28T00:28:51;3.72;;;3.42;;
14346;SDS011;7257;52.158;9.968;2023-02-28T00:29:12;4.38;;;3.65;;
14346;SDS011;7257;52.158;9.968;2023-02-28T00:29:34;4.78;;;3.47;;
14346;SDS011;7257;52.158;9.968;2023-02-28T00:29:55;6.07;;;3.50;;
14346;SDS011;7257;52.158;9.968;2023-02-28T00:30:17;6.10;;;3.80;;
14346;SDS011;7257;52.158;9.968;2023-02-28T00:30:38;6.03;;;4.20;;
14346;SDS011;7257;52.158;9.968;2023-02-28T00:30:59;5.95;;;4.30;;
14346;SDS011;7257;52.158;9.968;2023-02-28T00:31:21;5.43;;;4.35;;
14346;SDS011;7257;52.158;9.968;2023-02-28T00:31:43;4.55;;;4.10;;
14346;SDS011;7257;52.158;9.968;2023-02-28T00:32:04;4.70;;;3.88;;
14346;SDS011;7257;52.158;9.968;2023-02-28T00:32:26;4.97;;;4.10;;
14346;SDS011;7257;52.158;9.968;2023-02-28T00:32:46;5.55;;;4.72;;
14346;SDS011;7257;52.158;9.968;2023-02-28T00:33:08;7.00;;;5.70;;
14346;SDS011;7257;52.158;9.968;2023-02-28T00:33:29;7.13;;;5.65;;
14346;SDS011;7257;52.158;9.968;2023-02-28T00:33:50;6.63;;;5.10;;
14346;SDS011;7257;52.158;9.968;2023-02-28T00:34:11;7.30;;;4.72;;
14346;SDS011;7257;52.158;9.968;2023-02-28T00:34:33;7.35;;;4.53;;
14346;SDS011;7257;52.158;9.968;2023-02-28T00:34:57;6.60;;;4.40;;
14346;SDS011;7257;52.158;9.968;2023-02-28T00:35:18;4.43;;;4.03;;
14346;SDS011;7257;52.158;9.968;2023-02-28T00:35:39;5.05;;;4.22;;
14346;SDS011;7257;52.158;9.968;2023-02-28T00:36:02;6.13;;;4.20;;
14346;SDS011;7257;52.158;9.968;2023-02-28T00:36:24;6.50;;;4.80;;
14346;SDS011;7257;52.158;9.968;2023-02-28T00:36:45;6.25;;;4.60;;
14346;SDS011;7257;52.158;9.968;2023-02-28T00:37:09;5.70;;;4.30;;
14346;SDS011;7257;52.158;9.968;2023-02-28T00:37:33;6.55;;;4.80;;
14346;SDS011;7257;52.158;9.968;2023-02-28T00:37:54;6.10;;;4.53;;
14346;SDS011;7257;52.158;9.968;2023-02-28T00:38:14;5.78;;;4.20;;
14346;SDS011;7257;52.158;9.968;2023-02-28T00:38:36;5.10;;;3.90;;
14346;SDS011;7257;52.158;9.968;2023-02-28T00:38:57;5.68;;;4.18;;
14346;SDS011;7257;52.158;9.968;2023-02-28T00:39:18;6.07;;;4.70;;
14346;SDS011;7257;52.158;9.968;2023-02-28T00:39:40;6.43;;;4.82;;
14346;SDS011;7257;52.158;9.968;2023-02-28T00:40:02;5.60;;;4.82;;
14346;SDS011;7257;52.158;9.968;2023-02-28T00:40:25;5.63;;;4.78;;
14346;SDS011;7257;52.158;9.968;2023-02-28T00:40:46;5.35;;;4.85;;
14346;SDS011;7257;52.158;9.968;2023-02-28T00:41:07;4.45;;;4.05;;
14346;SDS011;7257;52.158;9.968;2023-02-28T00:41:29;4.45;;;3.83;;
14346;SDS011;7257;52.158;9.968;2023-02-28T00:41:50;5.07;;;3.70;;
14346;SDS011;7257;52.158;9.968;2023-02-28T00:42:11;4.15;;;3.25;;
14346;SDS011;7257;52.158;9.968;2023-02-28T00:42:32;3.88;;;3.20;;
14346;SDS011;7257;52.158;9.968;2023-02-28T00:42:53;4.38;;;3.60;;
14346;SDS011;7257;52.158;9.968;2023-02-28T00:43:14;7.18;;;3.90;;
14346;SDS011;7257;52.158;9.968;2023-02-28T00:43:38;6.85;;;3.67;;
14346;SDS011;7257;52.158;9.968;2023-02-28T00:43:59;6.70;;;3.78;;
14346;SDS011;7257;52.158;9.968;2023-02-28T00:44:20;4.82;;;4.10;;
14346;SDS011;7257;52.158;9.968;2023-02-28T00:44:41;5.35;;;4.28;;
14346;SDS011;7257;52.158;9.968;2023-02-28T00:45:04;5.15;;;4.32;;
14346;SDS011;7257;52.158;9.968;2023-02-28T00:45:25;5.55;;;4.38;;
14346;SDS011;7257;52.158;9.968;2023-02-28T00:45:46;6.45;;;3.92;;
14346;SDS011;7257;52.158;9.968;2023-02-28T00:46:07;6.20;;;3.60;;
14346;SDS011;7257;52.158;9.968;2023-02-28T00:46:29;6.03;;;3.70;;
14346;SDS011;7257;52.158;9.968;2023-02-28T00:46:50;5.53;;;4.50;;
14346;SDS011;7257;52.158;9.968;2023-02-28T00:47:11;5.55;;;5.03;;
14346;SDS011;7257;52.158;9.968;2023-02-28T00:47:32;5.35;;;4.85;;
14346;SDS011;7257;52.158;9.968;2023-02-28T00:47:53;5.95;;;5.05;;
14346;SDS011;7257;52.158;9.968;2023-02-28T00:48:15;6.63;;;5.13;;
14346;SDS011;7257;52.158;9.968;2023-02-28T00:48:36;6.45;;;5.10;;
14346;SDS011;7257;52.158;9.968;2023-02-28T00:48:57;5.07;;;4.57;;
14346;SDS011;7257;52.158;9.968;2023-02-28T00:49:18;5.43;;;4.85;;
14346;SDS011;7257;52.158;9.968;2023-02-28T00:49:40;5.80;;;4.95;;
14346;SDS011;7257;52.158;9.968;2023-02-28T00:50:01;5.57;;;4.55;;
14346;SDS011;7257;52.158;9.968;2023-02-28T00:50:23;4.95;;;4.18;;
14346;SDS011;7257;52.158;9.968;2023-02-28T00:50:44;5.00;;;4.32;;
14346;SDS011;7257;52.158;9.968;2023-02-28T00:51:09;4.72;;;4.30;;
14346;SDS011;7257;52.158;9.968;2023-02-28T00:51:30;6.10;;;4.43;;
14346;SDS011;7257;52.158;9.968;2023-02-28T00:51:51;6.45;;;4.45;;
14346;SDS011;7257;52.158;9.968;2023-02-28T00:52:12;6.43;;;4.27;;
14346;SDS011;7257;52.158;9.968;2023-02-28T00:52:34;4.65;;;3.78;;
14346;SDS011;7257;52.158;9.968;2023-02-28T00:52:55;4.80;;;3.63;;
14346;SDS011;7257;52.158;9.968;2023-02-28T00:53:16;4.97;;;3.47;;
14346;SDS011;7257;52.158;9.968;2023-02-28T00:53:36;4.72;;;3.35;;
14346;SDS011;7257;52.158;9.968;2023-02-28T00:53:58;4.78;;;3.53;;
14346;SDS011;7257;52.158;9.968;2023-02-28T00:54:19;4.85;;;4.07;;
14346;SDS011;7257;52.158;9.968;2023-02-28T00:54:40;5.57;;;4.97;;
14346;SDS011;7257;52.158;9.968;2023-02-28T00:55:01;5.45;;;4.95;;
14346;SDS011;7257;52.158;9.968;2023-02-28T00:55:23;5.25;;;4.80;;
14346;SDS011;7257;52.158;9.968;2023-02-28T00:55:44;4.53;;;4.13;;
14346;SDS011;7257;52.158;9.968;2023-02-28T00:56:05;4.78;;;4.20;;
14346;SDS011;7257;52.158;9.968;2023-02-28T00:56:27;4.60;;;3.83;;
14346;SDS011;7257;52.158;9.968;2023-02-28T00:56:48;4.60;;;3.83;;
14346;SDS011;7257;52.158;9.968;2023-02-28T00:57:10;4.40;;;3.90;;
14346;SDS011;7257;52.158;9.968;2023-02-28T00:57:31;4.90;;;4.40;;
14346;SDS011;7257;52.158;9.968;2023-02-28T00:57:52;5.28;;;4.78;;
14346;SDS011;7257;52.158;9.968;2023-02-28T00:58:14;5.45;;;4.95;;
14346;SDS011;7257;52.158;9.968;2023-02-28T00:58:34;5.38;;;4.47;;
14346;SDS011;7257;52.158;9.968;2023-02-28T00:58:57;5.57;;;4.68;;
14346;SDS011;7257;52.158;9.968;2023-02-28T00:59:18;5.63;;;4.45;;
14346;SDS011;7257;52.158;9.968;2023-02-28T00:59:40;5.10;;;3.97;;
14346;SDS011;7257;52.158;9.968;2023-02-28T01:00:01;4.88;;;4.28;;
14346;SDS011;7257;52.158;9.968;2023-02-28T01:00:23;6.28;;;4.57;;
14346;SDS011;7257;52.158;9.968;2023-02-28T01:00:44;6.30;;;4.20;;
14346;SDS011;7257;52.158;9.968;2023-02-28T01:01:08;6.20;;;4.00;;
14346;SDS011;7257;52.158;9.968;2023-02-28T01:01:29;4.68;;;3.70;;
14346;SDS011;7257;52.158;9.968;2023-02-28T01:01:50;3.95;;;3.42;;
14346;SDS011;7257;52.158;9.968;2023-02-28T01:02:11;3.78;;;3.38;;
14346;SDS011;7257;52.158;9.968;2023-02-28T01:02:32;4.00;;;3.60;;
14346;SDS011;7257;52.158;9.968;2023-02-28T01:02:54;4.25;;;3.78;;
14346;SDS011;7257;52.158;9.968;2023-02-28T01:03:15;5.30;;;4.45;;
14346;SDS011;7257;52.158;9.968;2023-02-28T01:03:36;5.50;;;4.72;;
14346;SDS011;7257;52.158;9.968;2023-02-28T01:03:58;6.47;;;5.18;;
14346;SDS011;7257;52.158;9.968;2023-02-28T01:04:20;7.40;;;5.15;;
14346;SDS011;7257;52.158;9.968;2023-02-28T01:04:41;6.85;;;4.65;;
14346;SDS011;7257;52.158;9.968;2023-02-28T01:05:02;5.30;;;4.03;;
14346;SDS011;7257;52.158;9.968;2023-02-28T01:05:23;3.80;;;3.35;;
14346;SDS011;7257;52.158;9.968;2023-02-28T01:05:45;4.97;;;3.80;;
14346;SDS011;7257;52.158;9.968;2023-02-28T01:06:06;5.65;;;4.13;;
14346;SDS011;7257;52.158;9.968;2023-02-28T01:06:27;6.45;;;4.75;;
14346;SDS011;7257;52.158;9.968;2023-02-28T01:06:48;5.90;;;4.70;;
14346;SDS011;7257;52.158;9.968;2023-02-28T01:07:10;5.80;;;5.18;;
14346;SDS011;7257;52.158;9.968;2023-02-28T01:07:31;5.35;;;4.85;;
14346;SDS011;7257;52.158;9.968;2023-02-28T01:07:52;5.80;;;4.80;;
14346;SDS011;7257;52.158;9.968;2023-02-28T01:08:13;5.70;;;4.80;;
14346;SDS011;7257;52.158;9.968;2023-02-28T01:08:35;6.78;;;4.75;;
14346;SDS011;7257;52.158;9.968;2023-02-28T01:08:56;6.80;;;5.00;;
14346;SDS011;7257;52.158;9.968;2023-02-28T01:09:17;7.90;;;5.20;;
14346;SDS011;7257;52.158;9.968;2023-02-28T01:09:38;7.00;;;5.63;;
14346;SDS011;7257;52.158;9.968;2023-02-28T01:09:59;8.52;;;6.07;;
14346;SDS011;7257;52.158;9.968;2023-02-28T01:10:21;9.45;;;6.25;;
14346;SDS011;7257;52.158;9.968;2023-02-28T01:10:42;9.20;;;6.35;;
14346;SDS011;7257;52.158;9.968;2023-02-28T01:11:07;8.38;;;6.32;;
14346;SDS011;7257;52.158;9.968;2023-02-28T01:11:29;6.68;;;5.72;;
14346;SDS011;7257;52.158;9.968;2023-02-28T01:11:51;6.93;;;5.80;;
14346;SDS011;7257;52.158;9.968;2023-02-28T01:12:12;7.47;;;6.05;;
14346;SDS011;7257;52.158;9.968;2023-02-28T01:12:32;8.13;;;6.45;;
14346;SDS011;7257;52.158;9.968;2023-02-28T01:12:53;7.47;;;6.38;;
14346;SDS011;7257;52.158;9.968;2023-02-28T01:13:15;7.25;;;6.45;;
14346;SDS011;7257;52.158;9.968;2023-02-28T01:13:36;6.65;;;5.95;;
14346;SDS011;7257;52.158;9.968;2023-02-28T01:13:59;6.22;;;5.40;;
14346;SDS011;7257;52.158;9.968;2023-02-28T01:14:20;5.80;;;5.20;;
14346;SDS011;7257;52.158;9.968;2023-02-28T01:14:41;6.63;;;5.60;;
14346;SDS011;7257;52.158;9.968;2023-02-28T01:15:04;7.55;;;5.97;;
14346;SDS011;7257;52.158;9.968;2023-02-28T01:15:25;8.65;;;6.38;;
14346;SDS011;7257;52.158;9.968;2023-02-28T01:15:49;8.27;;;6.47;;
14346;SDS011;7257;52.158;9.968;2023-02-28T01:16:11;9.43;;;6.78;;
14346;SDS011;7257;52.158;9.968;2023-02-28T01:16:32;7.63;;;6.32;;
14346;SDS011;7257;52.158;9.968;2023-02-28T01:16:54;7.45;;;6.10;;
14346;SDS011;7257;52.158;9.968;2023-02-28T01:17:15;6.55;;;5.85;;
14346;SDS011;7257;52.158;9.968;2023-02-28T01:17:36;6.93;;;5.65;;
14346;SDS011;7257;52.158;9.968;2023-02-28T01:17:57;7.97;;;6.30;;
14346;SDS011;7257;52.158;9.968;2023-02-28T01:18:18;8.82;;;6.22;;
14346;SDS011;7257;52.158;9.968;2023-02-28T01:18:40;8.75;;;6.03;;
14346;SDS011;7257;52.158;9.968;2023-02-28T01:19:01;7.40;;;5.88;;
14346;SDS011;7257;52.158;9.968;2023-02-28T01:19:22;8.23;;;6.47;;
14346;SDS011;7257;52.158;9.968;2023-02-28T01:19:43;9.13;;;7.05;;
14346;SDS011;7257;52.158;9.968;2023-02-28T01:20:05;8.65;;;6.97;;
14346;SDS011;7257;52.158;9.968;2023-02-28T01:20:27;8.05;;;6.85;;
14346;SDS011;7257;52.158;9.968;2023-02-28T01:20:47;7.15;;;6.40;;
14346;SDS011;7257;52.158;9.968;2023-02-28T01:21:10;8.13;;;6.45;;
14346;SDS011;7257;52.158;9.968;2023-02-28T01:21:32;7.18;;;5.95;;
14346;SDS011;7257;52.158;9.968;2023-02-28T01:21:54;7.30;;;5.80;;
14346;SDS011;7257;52.158;9.968;2023-02-28T01:22:15;6.72;;;5.68;;
14346;SDS011;7257;52.158;9.968;2023-02-28T01:22:36;8.52;;;6.35;;
14346;SDS011;7257;52.158;9.968;2023-02-28T01:22:57;8.07;;;6.70;;
14346;SDS011;7257;52.158;9.968;2023-02-28T01:23:18;9.50;;;6.97;;
14346;SDS011;7257;52.158;9.968;2023-02-28T01:23:41;8.65;;;6.88;;
14346;SDS011;7257;52.158;9.968;2023-02-28T01:24:02;8.75;;;6.70;;
14346;SDS011;7257;52.158;9.968;2023-02-28T01:24:24;7.30;;;6.15;;
14346;SDS011;7257;52.158;9.968;2023-02-28T01:24:46;8.32;;;6.15;;
14346;SDS011;7257;52.158;9.968;2023-02-28T01:25:08;8.85;;;6.32;;
14346;SDS011;7257;52.158;9.968;2023-02-28T01:25:29;9.45;;;6.40;;
14346;SDS011;7257;52.158;9.968;2023-02-28T01:25:50;9.65;;;5.93;;
14346;SDS011;7257;52.158;9.968;2023-02-28T01:26:12;9.00;;;5.70;;
14346;SDS011;7257;52.158;9.968;2023-02-28T01:26:35;8.73;;;5.82;;
14346;SDS011;7257;52.158;9.968;2023-02-28T01:26:56;9.68;;;6.40;;
14346;SDS011;7257;52.158;9.968;2023-02-28T01:27:17;9.98;;;6.45;;
14346;SDS011;7257;52.158;9.968;2023-02-28T01:27:38;8.55;;;6.15;;
14346;SDS011;7257;52.158;9.968;2023-02-28T01:28:00;7.50;;;6.00;;
14346;SDS011;7257;52.158;9.968;2023-02-28T01:28:21;7.10;;;6.20;;
14346;SDS011;7257;52.158;9.968;2023-02-28T01:28:42;7.77;;;6.97;;
14346;SDS011;7257;52.158;9.968;2023-02-28T01:29:04;8.30;;;7.05;;
14346;SDS011;7257;52.158;9.968;2023-02-28T01:29:25;8.32;;;7.00;;
14346;SDS011;7257;52.158;9.968;2023-02-28T01:29:47;7.72;;;6.55;;
14346;SDS011;7257;52.158;9.968;2023-02-28T01:30:09;7.90;;;6.57;;
14346;SDS011;7257;52.158;9.968;2023-02-28T01:30:31;7.50;;;6.20;;
14346;SDS011;7257;52.158;9.968;2023-02-28T01:30:52;7.60;;;5.95;;
14346;SDS011;7257;52.158;9.968;2023-02-28T01:31:13;7.55;;;5.90;;
14346;SDS011;7257;52.158;9.968;2023-02-28T01:31:35;7.85;;;5.97;;
14346;SDS011;7257;52.158;9.968;2023-02-28T01:31:56;7.43;;;6.40;;
14346;SDS011;7257;52.158;9.968;2023-02-28T01:32:19;6.90;;;6.05;;
14346;SDS011;7257;52.158;9.968;2023-02-28T01:32:40;6.78;;;6.05;;
14346;SDS011;7257;52.158;9.968;2023-02-28T01:33:02;7.28;;;6.22;;
14346;SDS011;7257;52.158;9.968;2023-02-28T01:33:23;7.80;;;6.68;;
14346;SDS011;7257;52.158;9.968;2023-02-28T01:33:44;8.63;;;6.82;;
14346;SDS011;7257;52.158;9.968;2023-02-28T01:34:06;8.32;;;6.43;;
14346;SDS011;7257;52.158;9.968;2023-02-28T01:34:28;9.07;;;6.38;;
14346;SDS011;7257;52.158;9.968;2023-02-28T01:34:49;9.40;;;6.45;;
14346;SDS011;7257;52.158;9.968;2023-02-28T01:35:09;8.43;;;6.03;;
14346;SDS011;7257;52.158;9.968;2023-02-28T01:35:31;9.13;;;6.20;;
14346;SDS011;7257;52.158;9.968;2023-02-28T01:35:57;7.82;;;6.15;;
14346;SDS011;7257;52.158;9.968;2023-02-28T01:36:19;8.50;;;5.75;;
14346;SDS011;7257;52.158;9.968;2023-02-28T01:36:41;8.07;;;4.93;;
14346;SDS011;7257;52.158;9.968;2023-02-28T01:37:02;9.18;;;5.22;;
14346;SDS011;7257;52.158;9.968;2023-02-28T01:37:24;8.07;;;6.00;;
14346;SDS011;7257;52.158;9.968;2023-02-28T01:37:45;7.80;;;6.10;;
14346;SDS011;7257;52.158;9.968;2023-02-28T01:38:06;7.75;;;6.18;;
14346;SDS011;7257;52.158;9.968;2023-02-28T01:38:27;7.50;;;6.20;;
14346;SDS011;7257;52.158;9.968;2023-02-28T01:38:48;7.20;;;5.97;;
14346;SDS011;7257;52.158;9.968;2023-02-28T01:39:11;7.50;;;5.80;;
14346;SDS011;7257;52.158;9.968;2023-02-28T01:39:32;7.55;;;6.07;;
14346;SDS011;7257;52.158;9.968;2023-02-28T01:39:53;7.32;;;6.60;;
14346;SDS011;7257;52.158;9.968;2023-02-28T01:40:14;7.25;;;6.47;;
14346;SDS011;7257;52.158;9.968;2023-02-28T01:40:35;7.30;;;6.28;;
14346;SDS011;7257;52.158;9.968;2023-02-28T01:40:57;6.68;;;5.57;;
14346;SDS011;7257;52.158;9.968;2023-02-28T01:41:20;5.82;;;5.20;;
14346;SDS011;7257;52.158;9.968;2023-02-28T01:41:42;5.70;;;5.10;;
14346;SDS011;7257;52.158;9.968;2023-02-28T01:42:03;5.90;;;5.00;;
14346;SDS011;7257;52.158;9.968;2023-02-28T01:42:25;7.40;;;5.40;;
14346;SDS011;7257;52.158;9.968;2023-02-28T01:42:46;7.55;;;6.22;;
14346;SDS011;7257;52.158;9.968;2023-02-28T01:43:09;7.78;;;6.63;;
14346;SDS011;7257;52.158;9.968;2023-02-28T01:44:00;8.82;;;6.03;;
14346;SDS011;7257;52.158;9.968;2023-02-28T01:45:21;5.80;;;4.93;;
14346;SDS011;7257;52.158;9.968;2023-02-28T01:45:45;8.15;;;6.00;;
14346;SDS011;7257;52.158;9.968;2023-02-28T01:46:06;8.95;;;6.40;;
14346;SDS011;7257;52.158;9.968;2023-02-28T01:46:27;6.80;;;6.10;;
14346;SDS011;7257;52.158;9.968;2023-02-28T01:46:48;7.20;;;6.15;;
14346;SDS011;7257;52.158;9.968;2023-02-28T01:47:09;6.90;;;6.07;;
14346;SDS011;7257;52.158;9.968;2023-02-28T01:47:32;7.13;;;6.03;;
14346;SDS011;7257;52.158;9.968;2023-02-28T01:47:56;5.47;;;4.68;;
14346;SDS011;7257;52.158;9.968;2023-02-28T01:48:19;4.78;;;4.22;;
14346;SDS011;7257;52.158;9.968;2023-02-28T01:48:44;5.20;;;4.70;;
14346;SDS011;7257;52.158;9.968;2023-02-28T01:49:09;5.68;;;5.18;;
14346;SDS011;7257;52.158;9.968;2023-02-28T01:49:33;5.90;;;5.30;;
14346;SDS011;7257;52.158;9.968;2023-02-28T01:49:54;6.47;;;5.60;;
14346;SDS011;7257;52.158;9.968;2023-02-28T01:50:16;6.93;;;5.63;;
14346;SDS011;7257;52.158;9.968;2023-02-28T01:50:41;6.93;;;5.25;;
14346;SDS011;7257;52.158;9.968;2023-02-28T01:51:05;6.93;;;5.13;;
14346;SDS011;7257;52.158;9.968;2023-02-28T01:51:29;6.80;;;5.30;;
14346;SDS011;7257;52.158;9.968;2023-02-28T01:51:54;6.20;;;5.00;;
14346;SDS011;7257;52.158;9.968;2023-02-28T01:52:17;5.63;;;4.80;;
14346;SDS011;7257;52.158;9.968;2023-02-28T01:52:40;5.85;;;5.07;;
14346;SDS011;7257;52.158;9.968;2023-02-28T01:53:03;5.93;;;5.22;;
14346;SDS011;7257;52.158;9.968;2023-02-28T01:53:32;6.18;;;5.45;;
14346;SDS011;7257;52.158;9.968;2023-02-28T01:53:58;6.50;;;5.50;;
14346;SDS011;7257;52.158;9.968;2023-02-28T01:54:24;6.80;;;5.40;;
14346;SDS011;7257;52.158;9.968;2023-02-28T01:54:48;7.05;;;5.90;;
14346;SDS011;7257;52.158;9.968;2023-02-28T01:55:12;5.72;;;5.22;;
14346;SDS011;7257;52.158;9.968;2023-02-28T01:55:34;5.70;;;5.10;;
14346;SDS011;7257;52.158;9.968;2023-02-28T01:55:57;6.18;;;5.18;;
14346;SDS011;7257;52.158;9.968;2023-02-28T01:56:19;6.63;;;5.40;;
14346;SDS011;7257;52.158;9.968;2023-02-28T01:56:45;6.13;;;5.43;;
14346;SDS011;7257;52.158;9.968;2023-02-28T01:57:09;6.35;;;5.07;;
14346;SDS011;7257;52.158;9.968;2023-02-28T01:57:35;7.55;;;4.80;;
14346;SDS011;7257;52.158;9.968;2023-02-28T01:58:00;7.47;;;4.82;;
14346;SDS011;7257;52.158;9.968;2023-02-28T01:58:23;6.07;;;5.20;;
14346;SDS011;7257;52.158;9.968;2023-02-28T01:58:45;6.00;;;5.25;;
14346;SDS011;7257;52.158;9.968;2023-02-28T01:59:07;6.22;;;5.07;;
14346;SDS011;7257;52.158;9.968;2023-02-28T01:59:29;5.95;;;4.70;;
14346;SDS011;7257;52.158;9.968;2023-02-28T01:59:54;5.38;;;4.55;;
14346;SDS011;7257;52.158;9.968;2023-02-28T02:00:21;6.25;;;5.60;;
14346;SDS011;7257;52.158;9.968;2023-02-28T02:00:44;7.68;;;6.40;;
14346;SDS011;7257;52.158;9.968;2023-02-28T02:01:05;8.00;;;5.82;;
14346;SDS011;7257;52.158;9.968;2023-02-28T02:01:26;8.38;;;6.40;;
14346;SDS011;7257;52.158;9.968;2023-02-28T02:01:49;6.55;;;5.28;;
14346;SDS011;7257;52.158;9.968;2023-02-28T02:02:10;6.22;;;5.25;;
14346;SDS011;7257;52.158;9.968;2023-02-28T02:02:31;6.10;;;5.50;;
14346;SDS011;7257;52.158;9.968;2023-02-28T02:02:53;7.03;;;6.32;;
14346;SDS011;7257;52.158;9.968;2023-02-28T02:03:18;6.28;;;5.68;;
14346;SDS011;7257;52.158;9.968;2023-02-28T02:03:41;5.90;;;5.22;;
14346;SDS011;7257;52.158;9.968;2023-02-28T02:04:02;5.93;;;5.30;;
14346;SDS011;7257;52.158;9.968;2023-02-28T02:04:24;6.97;;;5.50;;
14346;SDS011;7257;52.158;9.968;2023-02-28T02:04:54;7.25;;;5.47;;
14346;SDS011;7257;52.158;9.968;2023-02-28T02:05:19;6.85;;;5.40;;
14346;SDS011;7257;52.158;9.968;2023-02-28T02:05:41;6.25;;;5.28;;
14346;SDS011;7257;52.158;9.968;2023-02-28T02:06:07;7.55;;;4.85;;
14346;SDS011;7257;52.158;9.968;2023-02-28T02:06:30;7.10;;;4.85;;
14346;SDS011;7257;52.158;9.968;2023-02-28T02:06:57;5.72;;;5.05;;
14346;SDS011;7257;52.158;9.968;2023-02-28T02:07:19;5.75;;;5.22;;
14346;SDS011;7257;52.158;9.968;2023-02-28T02:07:42;6.10;;;5.22;;
14346;SDS011;7257;52.158;9.968;2023-02-28T02:08:06;6.40;;;4.90;;
14346;SDS011;7257;52.158;9.968;2023-02-28T02:08:30;6.22;;;5.10;;
14346;SDS011;7257;52.158;9.968;2023-02-28T02:08:51;7.40;;;5.05;;
14346;SDS011;7257;52.158;9.968;2023-02-28T02:09:13;8.50;;;4.72;;
14346;SDS011;7257;52.158;9.968;2023-02-28T02:09:34;8.65;;;4.90;;
14346;SDS011;7257;52.158;9.968;2023-02-28T02:10:03;7.70;;;4.75;;
14346;SDS011;7257;52.158;9.968;2023-02-28T02:10:27;5.72;;;4.88;;
14346;SDS011;7257;52.158;9.968;2023-02-28T02:10:54;6.15;;;4.93;;
14346;SDS011;7257;52.158;9.968;2023-02-28T02:11:17;6.10;;;4.88;;
14346;SDS011;7257;52.158;9.968;2023-02-28T02:11:39;6.40;;;5.22;;
14346;SDS011;7257;52.158;9.968;2023-02-28T02:12:05;5.88;;;5.18;;
14346;SDS011;7257;52.158;9.968;2023-02-28T02:12:45;5.45;;;4.70;;
14346;SDS011;7257;52.158;9.968;2023-02-28T02:13:19;4.95;;;4.30;;
14346;SDS011;7257;52.158;9.968;2023-02-28T02:13:52;4.88;;;4.30;;
14346;SDS011;7257;52.158;9.968;2023-02-28T02:14:27;6.28;;;4.90;;
14346;SDS011;7257;52.158;9.968;2023-02-28T02:15:02;6.47;;;4.72;;
14346;SDS011;7257;52.158;9.968;2023-02-28T02:15:31;6.85;;;4.63;;
14346;SDS011;7257;52.158;9.968;2023-02-28T02:15:57;6.65;;;4.38;;
14346;SDS011;7257;52.158;9.968;2023-02-28T02:16:28;5.60;;;4.40;;
14346;SDS011;7257;52.158;9.968;2023-02-28T02:17:01;5.50;;;4.55;;
14346;SDS011;7257;52.158;9.968;2023-02-28T02:17:36;5.55;;;4.70;;